JRE325 CYXU-KCGF
Flight info
| Callsign | JRE325 |
|---|---|
| Flight time | 0h 22m |
| Altitude | 16000 |
| Route | LNCON DCT PFLYD |
| Aircraft | C25C/L-SDE2E3FGHRWXY/LB1 |
Departure
| Time | 2026-05-08 20:59 |
|---|---|
| Airport | London International Airport (CYXU) |
Arrival
| Time | 2026-05-08 21:22 |
|---|---|
| Airport | Cuyahoga County Airport (KCGF) |
| Time | Latitude | Longitude | Altitude | Speed | Heading |
|---|---|---|---|---|---|
| 2026-05-08 20:56 | 43.02956 | -81.14947 | 896 ft | 1 kts | 70° |
| 2026-05-08 20:57 | 43.02972 | -81.14943 | 896 ft | 6 kts | 6° |
| 2026-05-08 20:57 | 43.03039 | -81.14915 | 895 ft | 15 kts | 7° |
| 2026-05-08 20:57 | 43.03138 | -81.15012 | 895 ft | 22 kts | 318° |
| 2026-05-08 20:57 | 43.03270 | -81.15170 | 896 ft | 26 kts | 317° |
| 2026-05-08 20:58 | 43.03406 | -81.15334 | 896 ft | 26 kts | 319° |
| 2026-05-08 20:58 | 43.03512 | -81.15388 | 896 ft | 13 kts | 46° |
| 2026-05-08 20:58 | 43.03567 | -81.15298 | 896 ft | 12 kts | 46° |
| 2026-05-08 20:58 | 43.03585 | -81.15230 | 897 ft | 3 kts | 144° |
| 2026-05-08 20:59 | 43.03479 | -81.15105 | 896 ft | 65 kts | 140° |
| 2026-05-08 20:59 | 43.02884 | -81.14387 | 988 ft | 154 kts | 140° |
| 2026-05-08 20:59 | 43.01939 | -81.13273 | 1567 ft | 202 kts | 142° |
| 2026-05-08 20:59 | 43.00826 | -81.11969 | 2477 ft | 219 kts | 140° |
| 2026-05-08 21:00 | 42.99677 | -81.10501 | 3432 ft | 232 kts | 140° |
| 2026-05-08 21:00 | 42.98471 | -81.09000 | 4533 ft | 237 kts | 148° |
| 2026-05-08 21:00 | 42.96928 | -81.08432 | 5589 ft | 232 kts | 188° |
| 2026-05-08 21:00 | 42.95351 | -81.08907 | 6678 ft | 233 kts | 200° |
| 2026-05-08 21:01 | 42.93826 | -81.09680 | 7694 ft | 235 kts | 207° |
| 2026-05-08 21:01 | 42.92327 | -81.10598 | 8802 ft | 237 kts | 208° |
| 2026-05-08 21:01 | 42.90827 | -81.11564 | 9905 ft | 240 kts | 210° |
| 2026-05-08 21:01 | 42.89315 | -81.12550 | 10949 ft | 242 kts | 211° |
| 2026-05-08 21:02 | 42.87775 | -81.13531 | 12031 ft | 245 kts | 212° |
| 2026-05-08 21:02 | 42.86218 | -81.14462 | 13142 ft | 249 kts | 212° |
| 2026-05-08 21:02 | 42.84620 | -81.15404 | 14249 ft | 251 kts | 214° |
| 2026-05-08 21:02 | 42.83028 | -81.16401 | 15315 ft | 253 kts | 215° |
| 2026-05-08 21:03 | 42.81376 | -81.17426 | 16004 ft | 276 kts | 214° |
| 2026-05-08 21:03 | 42.79505 | -81.18595 | 16030 ft | 315 kts | 213° |
| 2026-05-08 21:03 | 42.77405 | -81.19895 | 16029 ft | 346 kts | 212° |
| 2026-05-08 21:03 | 42.75136 | -81.21276 | 16032 ft | 368 kts | 211° |
| 2026-05-08 21:04 | 42.72815 | -81.22654 | 16028 ft | 360 kts | 211° |
| 2026-05-08 21:04 | 42.70532 | -81.23986 | 16033 ft | 353 kts | 211° |
| 2026-05-08 21:04 | 42.68300 | -81.25313 | 16031 ft | 346 kts | 212° |
| 2026-05-08 21:04 | 42.66130 | -81.26669 | 16029 ft | 341 kts | 212° |
| 2026-05-08 21:05 | 42.63971 | -81.27970 | 16023 ft | 338 kts | 211° |
| 2026-05-08 21:05 | 42.61827 | -81.29236 | 16014 ft | 334 kts | 211° |
| 2026-05-08 21:05 | 42.59720 | -81.30517 | 16018 ft | 330 kts | 212° |
| 2026-05-08 21:05 | 42.57635 | -81.31793 | 16015 ft | 328 kts | 212° |
| 2026-05-08 21:06 | 42.55549 | -81.33032 | 16018 ft | 325 kts | 211° |
| 2026-05-08 21:06 | 42.53480 | -81.34263 | 16019 ft | 323 kts | 212° |
| 2026-05-08 21:06 | 42.51470 | -81.35506 | 16017 ft | 321 kts | 212° |
| 2026-05-08 21:06 | 42.49427 | -81.36727 | 16014 ft | 320 kts | 211° |
| 2026-05-08 21:07 | 42.47392 | -81.37925 | 16019 ft | 319 kts | 211° |
| 2026-05-08 21:07 | 42.45374 | -81.39155 | 16017 ft | 316 kts | 212° |
| 2026-05-08 21:07 | 42.43367 | -81.40374 | 16016 ft | 316 kts | 212° |
| 2026-05-08 21:07 | 42.41356 | -81.41564 | 16018 ft | 315 kts | 211° |
| 2026-05-08 21:08 | 42.39344 | -81.42748 | 16018 ft | 314 kts | 212° |
| 2026-05-08 21:08 | 42.37361 | -81.43968 | 15985 ft | 314 kts | 212° |
| 2026-05-08 21:08 | 42.35336 | -81.45189 | 15728 ft | 322 kts | 211° |
| 2026-05-08 21:08 | 42.33267 | -81.46417 | 15474 ft | 327 kts | 211° |
| 2026-05-08 21:09 | 42.31159 | -81.47659 | 15225 ft | 332 kts | 211° |
| 2026-05-08 21:09 | 42.29029 | -81.48921 | 14991 ft | 336 kts | 211° |
| 2026-05-08 21:09 | 42.26919 | -81.50214 | 14737 ft | 339 kts | 211° |
| 2026-05-08 21:09 | 42.24738 | -81.51468 | 14495 ft | 346 kts | 205° |
| 2026-05-08 21:10 | 42.22278 | -81.51760 | 14249 ft | 365 kts | 184° |
| 2026-05-08 21:10 | 42.19749 | -81.51706 | 14010 ft | 362 kts | 188° |
| 2026-05-08 21:10 | 42.17228 | -81.51833 | 13769 ft | 362 kts | 190° |
| 2026-05-08 21:10 | 42.14714 | -81.51954 | 13506 ft | 358 kts | 188° |
| 2026-05-08 21:11 | 42.12256 | -81.52000 | 13232 ft | 348 kts | 188° |
| 2026-05-08 21:11 | 42.09863 | -81.52017 | 12951 ft | 340 kts | 188° |
| 2026-05-08 21:11 | 42.07520 | -81.52027 | 12677 ft | 333 kts | 188° |
| 2026-05-08 21:11 | 42.05216 | -81.52040 | 12407 ft | 328 kts | 188° |
| 2026-05-08 21:12 | 42.02958 | -81.52093 | 12143 ft | 322 kts | 189° |
| 2026-05-08 21:12 | 42.00720 | -81.52152 | 11827 ft | 320 kts | 189° |
| 2026-05-08 21:12 | 41.98520 | -81.52189 | 11472 ft | 320 kts | 188° |
| 2026-05-08 21:12 | 41.96288 | -81.52222 | 11112 ft | 320 kts | 188° |
| 2026-05-08 21:13 | 41.94057 | -81.52251 | 10764 ft | 320 kts | 188° |
| 2026-05-08 21:13 | 41.91831 | -81.52281 | 10410 ft | 320 kts | 188° |
| 2026-05-08 21:13 | 41.89606 | -81.52314 | 10070 ft | 320 kts | 188° |
| 2026-05-08 21:13 | 41.87393 | -81.52345 | 9808 ft | 317 kts | 187° |
| 2026-05-08 21:14 | 41.85173 | -81.52384 | 9308 ft | 321 kts | 187° |
| 2026-05-08 21:14 | 41.82928 | -81.52290 | 8824 ft | 329 kts | 175° |
| 2026-05-08 21:14 | 41.80818 | -81.50960 | 8340 ft | 345 kts | 145° |
| 2026-05-08 21:14 | 41.79205 | -81.48724 | 7839 ft | 318 kts | 134° |
| 2026-05-08 21:15 | 41.77835 | -81.46530 | 7276 ft | 299 kts | 133° |
| 2026-05-08 21:15 | 41.76562 | -81.44414 | 6719 ft | 285 kts | 132° |
| 2026-05-08 21:15 | 41.75367 | -81.42405 | 6170 ft | 274 kts | 131° |
| 2026-05-08 21:15 | 41.74202 | -81.40433 | 5587 ft | 266 kts | 131° |
| 2026-05-08 21:16 | 41.73077 | -81.38520 | 5002 ft | 253 kts | 131° |
| 2026-05-08 21:16 | 41.72043 | -81.36744 | 4428 ft | 232 kts | 131° |
| 2026-05-08 21:16 | 41.71088 | -81.35095 | 3908 ft | 218 kts | 131° |
| 2026-05-08 21:16 | 41.70188 | -81.33529 | 3406 ft | 207 kts | 132° |
| 2026-05-08 21:17 | 41.69100 | -81.32487 | 2987 ft | 182 kts | 177° |
| 2026-05-08 21:17 | 41.67988 | -81.32660 | 2992 ft | 148 kts | 198° |
| 2026-05-08 21:17 | 41.67016 | -81.33063 | 3005 ft | 146 kts | 217° |
| 2026-05-08 21:17 | 41.66236 | -81.33950 | 3006 ft | 150 kts | 222° |
| 2026-05-08 21:18 | 41.65411 | -81.34841 | 3015 ft | 155 kts | 224° |
| 2026-05-08 21:18 | 41.64611 | -81.35835 | 3006 ft | 158 kts | 228° |
| 2026-05-08 21:18 | 41.63857 | -81.36931 | 2974 ft | 165 kts | 230° |
| 2026-05-08 21:18 | 41.63093 | -81.38078 | 2821 ft | 164 kts | 230° |
| 2026-05-08 21:19 | 41.62356 | -81.39196 | 2630 ft | 162 kts | 231° |
| 2026-05-08 21:19 | 41.61685 | -81.40392 | 2450 ft | 159 kts | 237° |
| 2026-05-08 21:19 | 41.61075 | -81.41579 | 2306 ft | 152 kts | 234° |
| 2026-05-08 21:19 | 41.60434 | -81.42593 | 2097 ft | 132 kts | 228° |
| 2026-05-08 21:20 | 41.59853 | -81.43472 | 1809 ft | 117 kts | 231° |
| 2026-05-08 21:20 | 41.59339 | -81.44208 | 1646 ft | 101 kts | 231° |
| 2026-05-08 21:20 | 41.58890 | -81.44926 | 1486 ft | 102 kts | 235° |
| 2026-05-08 21:20 | 41.58443 | -81.45668 | 1346 ft | 105 kts | 231° |
| 2026-05-08 21:21 | 41.57946 | -81.46428 | 1239 ft | 112 kts | 232° |
| 2026-05-08 21:21 | 41.57421 | -81.47215 | 1079 ft | 115 kts | 231° |
| 2026-05-08 21:21 | 41.56910 | -81.48017 | 895 ft | 110 kts | 231° |
| 2026-05-08 21:21 | 41.56521 | -81.48630 | 874 ft | 61 kts | 227° |
| 2026-05-08 21:22 | 41.56335 | -81.48913 | 878 ft | 25 kts | 231° |
| 2026-05-08 21:22 | 41.56222 | -81.49090 | 877 ft | 24 kts | 226° |
| 2026-05-08 21:22 | 41.56112 | -81.49263 | 875 ft | 25 kts | 230° |
| 2026-05-08 21:22 | 41.56088 | -81.49365 | 875 ft | 9 kts | 308° |
| 2026-05-08 21:23 | 41.56133 | -81.49414 | 876 ft | 8 kts | 339° |
| 2026-05-08 21:23 | 41.56175 | -81.49375 | 876 ft | 8 kts | 49° |
| 2026-05-08 21:23 | 41.56233 | -81.49284 | 878 ft | 17 kts | 51° |
| 2026-05-08 21:23 | 41.56321 | -81.49148 | 878 ft | 21 kts | 49° |
| 2026-05-08 21:24 | 41.56414 | -81.49003 | 879 ft | 20 kts | 55° |
| 2026-05-08 21:24 | 41.56506 | -81.48856 | 876 ft | 16 kts | 50° |
| 2026-05-08 21:24 | 41.56558 | -81.48841 | 875 ft | 5 kts | 323° |
| 2026-05-08 21:24 | 41.56578 | -81.48913 | 873 ft | 12 kts | 236° |